createdAt,value
2023-04-04T00:00:22.712Z,12.63
2023-04-04T00:01:25.434Z,15.20
2023-04-04T00:02:28.097Z,11.55
2023-04-04T00:03:31.113Z,13.01
2023-04-04T00:04:34.001Z,12.33
2023-04-04T00:05:36.680Z,12.24
2023-04-04T00:06:39.323Z,11.69
2023-04-04T00:07:42.001Z,12.27
2023-04-04T00:08:44.762Z,15.58
2023-04-04T00:09:47.429Z,12.62
2023-04-04T00:10:50.103Z,15.12
2023-04-04T00:11:52.777Z,12.48
2023-04-04T00:12:55.445Z,14.95
2023-04-04T00:13:58.031Z,11.40
2023-04-04T00:15:00.678Z,9.36
2023-04-04T00:16:03.397Z,10.53
2023-04-04T00:17:06.016Z,11.99
2023-04-04T00:18:08.664Z,11.49
2023-04-04T00:19:11.260Z,13.75
2023-04-04T00:20:13.930Z,12.29
2023-04-04T00:21:16.493Z,13.92
2023-04-04T00:22:19.089Z,16.20
2023-04-04T00:23:21.884Z,14.02
2023-04-04T00:24:24.616Z,14.23
2023-04-04T00:25:27.167Z,10.60
2023-04-04T00:26:30.256Z,10.64
2023-04-04T00:27:33.345Z,8.80
2023-04-04T00:28:36.211Z,9.14
2023-04-04T00:29:40.113Z,9.22
2023-04-04T00:30:42.982Z,10.90
2023-04-04T00:31:45.684Z,11.03
2023-04-04T00:32:48.316Z,10.27
2023-04-04T00:33:51.208Z,11.22
2023-04-04T00:34:54.301Z,9.35
2023-04-04T00:35:57.182Z,12.22
2023-04-04T00:37:00.024Z,11.02
2023-04-04T00:38:02.607Z,10.95
2023-04-04T00:39:05.260Z,10.63
2023-04-04T00:40:08.141Z,12.05
2023-04-04T00:41:10.708Z,10.86
2023-04-04T00:42:13.478Z,11.31
2023-04-04T00:43:16.272Z,11.02
2023-04-04T00:44:20.154Z,10.66
2023-04-04T00:45:23.025Z,11.48
2023-04-04T00:46:26.004Z,12.59
2023-04-04T00:47:28.889Z,9.83
2023-04-04T00:48:31.763Z,9.31
2023-04-04T00:49:34.726Z,11.90
2023-04-04T00:50:37.869Z,12.26
2023-04-04T00:51:43.757Z,10.63
2023-04-04T00:52:46.584Z,9.71
2023-04-04T00:53:49.405Z,10.74
2023-04-04T00:54:52.104Z,14.24
2023-04-04T00:55:54.741Z,10.63
2023-04-04T00:56:57.615Z,12.65
2023-04-04T00:58:00.502Z,11.05
2023-04-04T00:59:03.428Z,11.17
2023-04-04T01:00:06.065Z,10.59
2023-04-04T01:01:08.632Z,10.13
2023-04-04T01:02:11.274Z,10.07
2023-04-04T01:03:13.948Z,9.40
2023-04-04T01:04:16.678Z,10.38
2023-04-04T01:05:19.387Z,9.74
2023-04-04T01:06:21.954Z,8.41
2023-04-04T01:07:24.623Z,9.23
2023-04-04T01:08:27.295Z,9.32
2023-04-04T01:09:29.870Z,11.65
2023-04-04T01:10:32.945Z,11.65
2023-04-04T01:11:36.026Z,10.10
2023-04-04T01:12:38.581Z,9.19
2023-04-04T01:13:41.156Z,10.68
2023-04-04T01:14:44.031Z,10.19
2023-04-04T01:15:47.059Z,6.65
2023-04-04T01:16:49.915Z,8.92
2023-04-04T01:17:52.455Z,10.18
2023-04-04T01:18:55.116Z,9.30
2023-04-04T01:19:57.784Z,9.91
2023-04-04T01:21:00.452Z,9.33
2023-04-04T01:22:03.017Z,10.23
2023-04-04T01:23:05.693Z,9.36
2023-04-04T01:24:08.575Z,9.37
2023-04-04T01:25:11.458Z,7.85
2023-04-04T01:26:14.419Z,7.64
2023-04-04T01:27:17.298Z,8.94
2023-04-04T01:28:19.965Z,7.31
2023-04-04T01:29:22.531Z,8.94
2023-04-04T01:30:25.398Z,13.05
2023-04-04T01:31:28.418Z,11.99
2023-04-04T01:32:31.132Z,10.68
2023-04-04T01:33:33.823Z,7.72
2023-04-04T01:34:36.713Z,9.73
2023-04-04T01:35:39.602Z,8.75
2023-04-04T01:36:42.453Z,8.05
2023-04-04T01:37:47.023Z,9.12
2023-04-04T01:38:49.528Z,7.57
2023-04-04T01:39:52.603Z,8.86
2023-04-04T01:40:55.490Z,6.33
2023-04-04T01:41:58.491Z,8.50
2023-04-04T01:43:01.332Z,8.63
2023-04-04T01:44:04.000Z,9.23
2023-04-04T01:45:06.470Z,8.90
2023-04-04T01:46:09.590Z,7.70
2023-04-04T01:47:12.221Z,7.45
2023-04-04T01:48:14.886Z,7.75
2023-04-04T01:49:17.457Z,8.86
2023-04-04T01:50:20.018Z,8.83
2023-04-04T01:51:22.698Z,9.64
2023-04-04T01:52:25.258Z,9.80
2023-04-04T01:53:28.637Z,8.35
2023-04-04T01:54:31.418Z,8.59
2023-04-04T01:55:34.093Z,10.01
2023-04-04T01:56:37.269Z,9.95
2023-04-04T01:57:40.251Z,7.77
2023-04-04T01:58:45.929Z,8.71
2023-04-04T01:59:48.569Z,8.69
2023-04-04T02:00:53.226Z,8.32
2023-04-04T02:01:56.036Z,9.11
2023-04-04T02:02:58.947Z,7.12
2023-04-04T02:04:01.552Z,8.85
2023-04-04T02:05:04.074Z,10.85
2023-04-04T02:06:06.625Z,9.75
2023-04-04T02:07:09.297Z,9.58
2023-04-04T02:08:12.394Z,7.72
2023-04-04T02:09:15.249Z,9.26
2023-04-04T02:10:18.042Z,8.25
2023-04-04T02:11:20.790Z,8.82
2023-04-04T02:12:23.672Z,9.54
2023-04-04T02:13:26.439Z,11.17
2023-04-04T02:14:29.309Z,7.46
2023-04-04T02:15:32.104Z,8.45
2023-04-04T02:16:34.857Z,8.08
2023-04-04T02:17:37.761Z,8.22
2023-04-04T02:18:41.322Z,9.11
2023-04-04T02:19:44.310Z,9.79
2023-04-04T02:20:47.182Z,8.33
2023-04-04T02:21:49.760Z,7.91
2023-04-04T02:22:52.311Z,10.13
2023-04-04T02:23:55.191Z,8.21
2023-04-04T02:24:58.060Z,8.61
2023-04-04T02:26:00.838Z,7.67
2023-04-04T02:27:03.807Z,8.34
2023-04-04T02:28:06.501Z,7.73
2023-04-04T02:29:09.266Z,8.08
2023-04-04T02:30:11.929Z,8.71
2023-04-04T02:31:16.558Z,7.78
2023-04-04T02:32:19.307Z,8.43
2023-04-04T02:33:21.989Z,8.76
2023-04-04T02:34:24.745Z,12.05
2023-04-04T02:35:27.426Z,8.48
2023-04-04T02:36:30.500Z,9.58
2023-04-04T02:37:33.365Z,8.06
2023-04-04T02:38:36.158Z,8.12
2023-04-04T02:39:38.816Z,9.14
2023-04-04T02:40:42.020Z,9.43
2023-04-04T02:41:45.069Z,9.22
2023-04-04T02:42:48.257Z,11.84
2023-04-04T02:43:51.212Z,6.45
2023-04-04T02:44:54.815Z,9.55
2023-04-04T02:45:58.540Z,9.04
2023-04-04T02:47:01.895Z,8.19
2023-04-04T02:48:04.704Z,8.68
2023-04-04T02:49:07.850Z,9.78
2023-04-04T02:50:11.758Z,8.73
2023-04-04T02:51:14.735Z,7.73
2023-04-04T02:52:17.821Z,7.55
2023-04-04T02:53:20.402Z,7.44
2023-04-04T02:54:23.284Z,7.68
2023-04-04T02:55:26.341Z,7.81
2023-04-04T02:56:29.247Z,7.82
2023-04-04T02:57:32.505Z,9.97
2023-04-04T02:58:35.570Z,8.50
2023-04-04T02:59:38.549Z,9.04
2023-04-04T03:00:42.252Z,9.08
2023-04-04T03:01:45.314Z,8.00
2023-04-04T03:02:48.318Z,8.08
2023-04-04T03:03:51.236Z,7.96
2023-04-04T03:04:54.456Z,7.26
2023-04-04T03:05:57.755Z,7.15
2023-04-04T03:07:00.422Z,7.65
2023-04-04T03:08:03.303Z,9.85
2023-04-04T03:09:06.176Z,8.18
2023-04-04T03:10:09.243Z,9.06
2023-04-04T03:11:12.626Z,9.45
2023-04-04T03:12:15.808Z,8.63
2023-04-04T03:13:18.891Z,9.08
2023-04-04T03:14:21.687Z,10.72
2023-04-04T03:15:24.845Z,10.56
2023-04-04T03:16:28.155Z,8.80
2023-04-04T03:17:31.535Z,10.68
2023-04-04T03:18:34.504Z,9.13
2023-04-04T03:19:37.589Z,8.07
2023-04-04T03:20:40.851Z,8.49
2023-04-04T03:21:43.932Z,8.71
2023-04-04T03:22:47.012Z,6.48
2023-04-04T03:23:50.095Z,10.61
2023-04-04T03:24:52.779Z,12.53
2023-04-04T03:25:55.369Z,8.43
2023-04-04T03:26:58.010Z,8.58
2023-04-04T03:28:00.995Z,7.12
2023-04-04T03:29:04.496Z,8.32
2023-04-04T03:30:08.105Z,10.67
2023-04-04T03:31:11.051Z,9.30
2023-04-04T03:32:14.782Z,9.22
2023-04-04T03:33:17.929Z,10.16
2023-04-04T03:34:21.000Z,7.81
2023-04-04T03:35:24.504Z,9.62
2023-04-04T03:36:27.894Z,9.10
2023-04-04T03:37:31.161Z,8.53
2023-04-04T03:38:34.451Z,6.28
2023-04-04T03:39:38.230Z,7.66
2023-04-04T03:40:41.868Z,10.08
2023-04-04T03:41:46.346Z,8.63
2023-04-04T03:42:49.620Z,8.59
2023-04-04T03:43:53.619Z,9.67
2023-04-04T03:44:56.805Z,10.11
2023-04-04T03:46:00.642Z,11.38
2023-04-04T03:47:04.141Z,7.02
2023-04-04T03:48:07.375Z,8.49
2023-04-04T03:49:10.254Z,9.23
2023-04-04T03:50:13.337Z,7.82
2023-04-04T03:51:16.520Z,9.36
2023-04-04T03:52:21.440Z,8.81
2023-04-04T03:53:25.427Z,8.43
2023-04-04T03:54:29.123Z,8.73
2023-04-04T03:55:32.621Z,7.36
2023-04-04T03:56:36.205Z,7.53
2023-04-04T03:57:39.428Z,9.20
2023-04-04T03:58:42.826Z,9.62
2023-04-04T03:59:46.381Z,8.72
2023-04-04T04:00:49.872Z,6.87
2023-04-04T04:01:54.217Z,7.41
2023-04-04T04:02:57.407Z,9.08
2023-04-04T04:04:03.147Z,8.65
2023-04-04T04:05:07.411Z,9.85
2023-04-04T04:06:12.282Z,8.44
2023-04-04T04:07:16.958Z,7.54
2023-04-04T04:08:19.817Z,7.49
2023-04-04T04:09:23.246Z,7.45
2023-04-04T04:10:27.031Z,8.08
2023-04-04T04:11:31.233Z,8.45
2023-04-04T04:12:36.500Z,8.15
2023-04-04T04:13:39.420Z,8.33
2023-04-04T04:14:42.607Z,8.58
2023-04-04T04:15:46.113Z,9.29
2023-04-04T04:16:49.783Z,8.24
2023-04-04T04:17:53.299Z,5.95
2023-04-04T04:18:56.666Z,7.56
2023-04-04T04:19:59.634Z,9.34
2023-04-04T04:21:04.416Z,9.88
2023-04-04T04:22:07.718Z,10.18
2023-04-04T04:23:11.310Z,9.72
2023-04-04T04:24:14.695Z,10.33
2023-04-04T04:25:18.854Z,11.72
2023-04-04T04:26:22.300Z,7.46
2023-04-04T04:27:25.781Z,7.77
2023-04-04T04:28:33.222Z,8.18
2023-04-04T04:29:36.462Z,10.01
2023-04-04T04:30:40.479Z,9.32
2023-04-04T04:31:43.679Z,9.76
2023-04-04T04:32:46.567Z,11.03
2023-04-04T04:33:49.292Z,9.41
2023-04-04T04:34:52.276Z,11.35
2023-04-04T04:35:56.979Z,9.28
2023-04-04T04:37:00.170Z,9.29
2023-04-04T04:38:03.466Z,9.75
2023-04-04T04:39:06.452Z,10.36
2023-04-04T04:40:09.827Z,9.66
2023-04-04T04:41:12.972Z,9.26
2023-04-04T04:42:17.325Z,11.78
2023-04-04T04:43:20.106Z,7.17
2023-04-04T04:44:23.246Z,8.50
2023-04-04T04:45:26.634Z,11.68
2023-04-04T04:46:30.089Z,7.34
2023-04-04T04:47:33.157Z,9.26
2023-04-04T04:48:36.210Z,9.98
2023-04-04T04:49:38.989Z,9.51
2023-04-04T04:50:41.917Z,9.03
2023-04-04T04:51:44.830Z,11.11
2023-04-04T04:52:47.500Z,8.51
2023-04-04T04:53:50.082Z,10.43
2023-04-04T04:54:52.832Z,14.45
2023-04-04T04:55:55.504Z,9.77
2023-04-04T04:56:58.561Z,12.65
2023-04-04T04:58:01.150Z,9.14
2023-04-04T04:59:03.936Z,8.04
2023-04-04T05:00:06.629Z,9.85
2023-04-04T05:01:09.761Z,7.81
2023-04-04T05:02:13.191Z,12.39
2023-04-04T05:03:16.066Z,11.21
2023-04-04T05:04:19.122Z,10.74
2023-04-04T05:05:22.333Z,10.80
2023-04-04T05:06:25.358Z,8.62
2023-04-04T05:07:28.755Z,9.59
2023-04-04T05:08:31.727Z,14.06
2023-04-04T05:09:34.810Z,12.39
2023-04-04T05:10:38.373Z,11.30
2023-04-04T05:11:41.468Z,7.91
2023-04-04T05:12:44.873Z,12.86
2023-04-04T05:13:48.347Z,12.15
2023-04-04T05:14:51.433Z,10.53
2023-04-04T05:15:54.708Z,9.55
2023-04-04T05:16:58.115Z,8.58
2023-04-04T05:18:01.602Z,12.88
2023-04-04T05:19:04.469Z,14.30
2023-04-04T05:20:07.646Z,11.94
2023-04-04T05:21:10.954Z,9.48
2023-04-04T05:22:14.103Z,11.73
2023-04-04T05:23:17.070Z,9.22
2023-04-04T05:24:19.594Z,9.14
2023-04-04T05:25:22.145Z,6.90
2023-04-04T05:26:25.167Z,8.12
2023-04-04T05:27:28.068Z,9.55
2023-04-04T05:28:31.353Z,13.07
2023-04-04T05:29:34.534Z,11.62
2023-04-04T05:30:37.821Z,10.24
2023-04-04T05:31:41.009Z,8.82
2023-04-04T05:32:43.818Z,9.98
2023-04-04T05:33:46.956Z,11.17
2023-04-04T05:34:50.239Z,10.79
2023-04-04T05:35:53.060Z,13.14
2023-04-04T05:36:56.502Z,10.72
2023-04-04T05:37:59.746Z,11.12
2023-04-04T05:39:03.170Z,9.24
2023-04-04T05:40:06.037Z,8.57
2023-04-04T05:41:08.643Z,10.52
2023-04-04T05:42:11.519Z,10.85
2023-04-04T05:43:14.195Z,10.62
2023-04-04T05:44:16.962Z,9.83
2023-04-04T05:45:20.008Z,9.43
2023-04-04T05:46:22.824Z,11.56
2023-04-04T05:47:25.993Z,11.20
2023-04-04T05:48:28.656Z,12.06
2023-04-04T05:49:31.715Z,10.14
2023-04-04T05:50:34.509Z,10.93
2023-04-04T05:51:37.172Z,11.76
2023-04-04T05:52:40.238Z,10.58
2023-04-04T05:53:43.320Z,11.03
2023-04-04T05:54:48.025Z,9.81
2023-04-04T05:55:50.540Z,9.89
2023-04-04T05:56:53.575Z,11.61
2023-04-04T05:57:56.555Z,11.29
2023-04-04T05:58:59.561Z,9.24
2023-04-04T06:00:02.711Z,9.82
2023-04-04T06:01:05.892Z,11.02
2023-04-04T06:02:08.890Z,10.22
2023-04-04T06:03:11.503Z,9.67
2023-04-04T06:04:14.723Z,10.18
2023-04-04T06:05:17.923Z,9.32
2023-04-04T06:06:20.731Z,9.35
2023-04-04T06:07:23.556Z,9.53
2023-04-04T06:08:26.467Z,9.86
2023-04-04T06:09:29.321Z,10.31
2023-04-04T06:10:32.322Z,7.54
2023-04-04T06:11:35.082Z,11.08
2023-04-04T06:12:37.970Z,9.16
2023-04-04T06:13:41.205Z,8.64
2023-04-04T06:14:44.215Z,11.00
2023-04-04T06:15:47.470Z,11.29
2023-04-04T06:16:50.274Z,10.75
2023-04-04T06:17:53.074Z,10.81
2023-04-04T06:18:56.317Z,12.28
2023-04-04T06:19:59.382Z,11.51
2023-04-04T06:21:02.701Z,9.61
2023-04-04T06:22:05.865Z,15.75
2023-04-04T06:23:14.585Z,11.94
2023-04-04T06:24:19.708Z,10.08
2023-04-04T06:25:22.555Z,8.85
2023-04-04T06:26:25.534Z,8.69
2023-04-04T06:27:28.427Z,11.86
2023-04-04T06:28:31.205Z,8.37
2023-04-04T06:29:33.994Z,8.73
2023-04-04T06:30:36.757Z,8.77
2023-04-04T06:31:39.892Z,8.43
2023-04-04T06:32:42.689Z,9.41
2023-04-04T06:33:45.589Z,11.32
2023-04-04T06:34:48.298Z,10.85
2023-04-04T06:35:51.324Z,9.77
2023-04-04T06:36:54.490Z,8.82
2023-04-04T06:37:57.181Z,9.62
2023-04-04T06:38:59.952Z,8.63
2023-04-04T06:40:02.909Z,9.82
2023-04-04T06:41:06.031Z,11.43
2023-04-04T06:42:08.887Z,11.95
2023-04-04T06:43:11.654Z,7.88
2023-04-04T06:44:14.914Z,10.21
2023-04-04T06:45:18.404Z,9.28
2023-04-04T06:46:21.721Z,10.79
2023-04-04T06:47:25.277Z,12.08
2023-04-04T06:48:28.096Z,9.67
2023-04-04T06:49:31.054Z,11.20
2023-04-04T06:50:34.308Z,10.30
2023-04-04T06:51:37.601Z,9.86
2023-04-04T06:52:40.505Z,9.03
2023-04-04T06:53:43.467Z,11.48
2023-04-04T06:54:46.852Z,11.71
2023-04-04T06:55:49.921Z,9.31
2023-04-04T06:56:53.401Z,10.28
2023-04-04T06:57:56.993Z,9.74
2023-04-04T06:58:59.605Z,12.75
2023-04-04T07:00:03.061Z,9.95
2023-04-04T07:01:06.159Z,9.86
2023-04-04T07:02:09.259Z,8.21
2023-04-04T07:03:12.441Z,8.49
2023-04-04T07:04:15.574Z,9.87
2023-04-04T07:05:18.801Z,9.94
2023-04-04T07:06:23.936Z,9.00
2023-04-04T07:07:26.662Z,11.79
2023-04-04T07:08:35.620Z,11.67
2023-04-04T07:09:34.726Z,9.66
2023-04-04T07:10:39.714Z,9.50
2023-04-04T07:11:42.662Z,10.06
2023-04-04T07:12:45.639Z,10.58
2023-04-04T07:13:49.195Z,11.12
2023-04-04T07:14:52.105Z,10.79
2023-04-04T07:15:55.081Z,9.26
2023-04-04T07:16:58.163Z,9.91
2023-04-04T07:18:01.193Z,11.68
2023-04-04T07:19:04.537Z,9.41
2023-04-04T07:20:07.614Z,9.13
2023-04-04T07:21:10.401Z,8.81
2023-04-04T07:22:13.616Z,9.45
2023-04-04T07:23:18.558Z,8.85
2023-04-04T07:24:24.041Z,11.17
2023-04-04T07:25:30.698Z,12.94
2023-04-04T07:26:33.656Z,12.89
2023-04-04T07:27:36.842Z,13.40
2023-04-04T07:28:40.126Z,11.08
2023-04-04T07:29:43.429Z,10.85
2023-04-04T07:30:46.558Z,11.65
2023-04-04T07:31:51.922Z,8.61
2023-04-04T07:32:55.150Z,10.62
2023-04-04T07:33:58.487Z,9.78
2023-04-04T07:35:01.986Z,10.53
2023-04-04T07:36:05.208Z,11.09
2023-04-04T07:37:09.471Z,12.86
2023-04-04T07:38:12.851Z,12.62
2023-04-04T07:39:16.344Z,13.05
2023-04-04T07:40:20.146Z,11.29
2023-04-04T07:41:23.130Z,11.79
2023-04-04T07:42:26.505Z,11.40
2023-04-04T07:43:29.787Z,11.02
2023-04-04T07:44:33.069Z,11.86
2023-04-04T07:45:36.669Z,13.38
2023-04-04T07:46:39.841Z,12.45
2023-04-04T07:47:43.200Z,13.64
2023-04-04T07:48:46.515Z,14.16
2023-04-04T07:49:52.792Z,11.11
2023-04-04T07:50:56.255Z,12.20
2023-04-04T07:51:59.537Z,13.40
2023-04-04T07:53:04.465Z,14.67
2023-04-04T07:54:07.756Z,11.33
2023-04-04T07:55:11.147Z,10.87
2023-04-04T07:56:14.417Z,12.98
2023-04-04T07:57:17.706Z,14.02
2023-04-04T07:58:20.955Z,11.38
2023-04-04T07:59:24.145Z,13.13
2023-04-04T08:00:34.439Z,12.61
2023-04-04T08:01:37.630Z,13.22
2023-04-04T08:02:40.945Z,13.35
2023-04-04T08:03:44.558Z,12.22
2023-04-04T08:04:47.777Z,11.85
2023-04-04T08:05:50.938Z,14.15
2023-04-04T08:06:53.727Z,12.60
2023-04-04T08:07:56.892Z,11.38
2023-04-04T08:08:59.775Z,13.85
2023-04-04T08:10:02.853Z,12.41
2023-04-04T08:11:06.129Z,10.59
2023-04-04T08:12:14.849Z,10.87
2023-04-04T08:13:17.929Z,12.45
2023-04-04T08:14:20.792Z,13.15
2023-04-04T08:15:23.771Z,14.46
2023-04-04T08:16:26.803Z,13.41
2023-04-04T08:17:29.896Z,13.12
2023-04-04T08:18:32.803Z,13.25
2023-04-04T08:19:35.783Z,13.85
2023-04-04T08:20:38.954Z,15.19
2023-04-04T08:21:42.354Z,14.04
2023-04-04T08:22:45.956Z,16.87
2023-04-04T08:23:49.026Z,15.76
2023-04-04T08:24:51.997Z,12.11
2023-04-04T08:25:55.287Z,12.96
2023-04-04T08:27:05.029Z,15.08
2023-04-04T08:28:03.609Z,14.03
2023-04-04T08:29:06.837Z,15.16
2023-04-04T08:30:09.853Z,16.38
2023-04-04T08:31:13.298Z,13.92
2023-04-04T08:32:16.661Z,12.71
2023-04-04T08:33:19.653Z,13.26
2023-04-04T08:34:22.885Z,14.50
2023-04-04T08:35:27.016Z,14.50
2023-04-04T08:36:30.066Z,10.81
2023-04-04T08:37:38.379Z,13.57
2023-04-04T08:38:41.650Z,15.97
2023-04-04T08:39:44.515Z,13.61
2023-04-04T08:40:47.726Z,13.03
2023-04-04T08:41:51.005Z,13.95
2023-04-04T08:42:54.381Z,13.82
2023-04-04T08:43:57.768Z,13.20
2023-04-04T08:45:00.850Z,12.42
2023-04-04T08:46:05.571Z,14.45
2023-04-04T08:47:08.794Z,16.61
2023-04-04T08:48:11.936Z,14.63
2023-04-04T08:49:15.318Z,13.35
2023-04-04T08:50:18.711Z,16.53
2023-04-04T08:51:21.893Z,17.72
2023-04-04T08:52:24.982Z,15.98
2023-04-04T08:53:28.064Z,16.22
2023-04-04T08:54:31.233Z,15.60
2023-04-04T08:55:34.216Z,14.59
2023-04-04T08:56:37.198Z,16.78
2023-04-04T08:57:40.166Z,16.71
2023-04-04T08:58:43.265Z,12.58
2023-04-04T08:59:46.504Z,14.91
2023-04-04T09:00:55.310Z,18.03
2023-04-04T09:02:00.740Z,20.11
2023-04-04T09:03:02.917Z,18.40
2023-04-04T09:04:05.719Z,18.19
2023-04-04T09:05:08.850Z,15.05
2023-04-04T09:06:11.565Z,17.34
2023-04-04T09:07:14.553Z,18.21
2023-04-04T09:08:17.414Z,18.18
2023-04-04T09:09:22.123Z,18.97
2023-04-04T09:10:25.325Z,18.23
2023-04-04T09:11:28.311Z,17.40
2023-04-04T09:12:31.270Z,14.44
2023-04-04T09:13:34.143Z,13.94
2023-04-04T09:14:36.915Z,15.95
2023-04-04T09:15:39.892Z,16.76
2023-04-04T09:16:42.896Z,17.09
2023-04-04T09:17:45.786Z,17.62
2023-04-04T09:18:48.820Z,17.35
2023-04-04T09:19:51.906Z,20.12
2023-04-04T09:20:55.092Z,18.72
2023-04-04T09:22:04.397Z,13.87
2023-04-04T09:23:07.388Z,14.61
2023-04-04T09:24:10.368Z,13.05
2023-04-04T09:25:13.239Z,13.18
2023-04-04T09:26:15.914Z,15.41
2023-04-04T09:27:18.805Z,14.54
2023-04-04T09:28:21.688Z,14.00
2023-04-04T09:29:24.854Z,15.35
2023-04-04T09:30:27.798Z,14.80
2023-04-04T09:31:31.021Z,16.82
2023-04-04T09:32:34.005Z,15.65
2023-04-04T09:33:37.050Z,16.19
2023-04-04T09:34:40.135Z,17.28
2023-04-04T09:35:43.435Z,15.52
2023-04-04T09:36:46.722Z,18.43
2023-04-04T09:37:49.919Z,16.22
2023-04-04T09:38:53.270Z,18.32
2023-04-04T09:39:56.558Z,15.46
2023-04-04T09:40:59.763Z,12.92
2023-04-04T09:42:02.732Z,16.05
2023-04-04T09:43:05.789Z,17.57
2023-04-04T09:44:08.765Z,11.56
2023-04-04T09:45:13.197Z,11.79
2023-04-04T09:46:16.274Z,12.60
2023-04-04T09:47:29.919Z,15.60
2023-04-04T09:48:24.158Z,16.14
2023-04-04T09:49:27.033Z,15.51
2023-04-04T09:50:29.820Z,16.37
2023-04-04T09:51:32.783Z,16.95
2023-04-04T09:52:36.176Z,14.75
2023-04-04T09:53:39.554Z,17.56
2023-04-04T09:54:48.052Z,15.86
2023-04-04T09:55:52.732Z,18.90
2023-04-04T09:56:55.875Z,13.26
2023-04-04T09:57:59.260Z,13.94
2023-04-04T09:59:04.698Z,12.56
2023-04-04T10:00:06.882Z,12.29
2023-04-04T10:01:10.107Z,16.89
2023-04-04T10:02:13.507Z,16.07
2023-04-04T10:03:20.195Z,16.12
2023-04-04T10:04:23.235Z,15.77
2023-04-04T10:05:26.030Z,14.51
2023-04-04T10:06:28.902Z,15.65
2023-04-04T10:07:31.671Z,13.41
2023-04-04T10:08:35.009Z,17.34
2023-04-04T10:09:40.420Z,14.34
2023-04-04T10:10:43.580Z,12.69
2023-04-04T10:11:46.650Z,14.32
2023-04-04T10:12:51.478Z,14.59
2023-04-04T10:13:54.859Z,13.31
2023-04-04T10:14:57.730Z,15.76
2023-04-04T10:16:01.174Z,14.53
2023-04-04T10:17:04.310Z,10.05
2023-04-04T10:18:07.393Z,15.82
2023-04-04T10:19:12.213Z,15.02
2023-04-04T10:20:15.388Z,15.64
2023-04-04T10:21:18.580Z,11.68
2023-04-04T10:22:27.175Z,11.25
2023-04-04T10:23:30.358Z,12.22
2023-04-04T10:24:33.540Z,11.39
2023-04-04T10:25:36.627Z,12.16
2023-04-04T10:26:39.594Z,13.65
2023-04-04T10:27:42.877Z,11.58
2023-04-04T10:28:46.059Z,11.51
2023-04-04T10:29:49.462Z,13.65
2023-04-04T10:31:05.767Z,13.67
2023-04-04T10:31:59.928Z,12.81
2023-04-04T10:33:03.354Z,9.88
2023-04-04T10:34:06.174Z,14.45
2023-04-04T10:35:09.465Z,13.73
2023-04-04T10:36:12.391Z,12.77
2023-04-04T10:37:15.310Z,11.41
2023-04-04T10:38:18.482Z,16.47
2023-04-04T10:39:21.383Z,14.63
2023-04-04T10:40:24.550Z,16.37
2023-04-04T10:41:27.318Z,14.21
2023-04-04T10:42:30.615Z,13.22
2023-04-04T10:43:33.887Z,12.29
2023-04-04T10:44:36.775Z,10.11
2023-04-04T10:45:41.898Z,12.24
2023-04-04T10:46:44.875Z,14.63
2023-04-04T10:47:48.115Z,15.05
2023-04-04T10:48:50.836Z,14.50
2023-04-04T10:49:53.903Z,14.77
2023-04-04T10:50:56.769Z,12.68
2023-04-04T10:51:59.961Z,12.38
2023-04-04T10:53:03.033Z,14.98
2023-04-04T10:54:06.217Z,13.24
2023-04-04T10:55:09.306Z,13.81
2023-04-04T10:56:12.577Z,12.92
2023-04-04T10:57:15.860Z,11.98
2023-04-04T10:58:20.888Z,9.73
2023-04-04T10:59:24.086Z,13.05
2023-04-04T11:00:27.676Z,13.18
2023-04-04T11:01:30.954Z,14.36
2023-04-04T11:02:34.389Z,13.24
2023-04-04T11:03:37.413Z,15.65
2023-04-04T11:04:40.905Z,12.65
2023-04-04T11:05:43.940Z,13.04
2023-04-04T11:06:47.173Z,14.27
2023-04-04T11:08:04.462Z,12.61
2023-04-04T11:08:54.749Z,11.32
2023-04-04T11:09:57.840Z,11.68
2023-04-04T11:11:05.068Z,13.42
2023-04-04T11:12:06.155Z,14.41
2023-04-04T11:13:13.269Z,10.75
2023-04-04T11:14:14.040Z,10.73
2023-04-04T11:15:17.338Z,11.54
2023-04-04T11:16:20.615Z,13.09
2023-04-04T11:17:25.145Z,14.95
2023-04-04T11:18:33.733Z,13.34
2023-04-04T11:19:32.317Z,12.71
2023-04-04T11:20:35.185Z,11.72
2023-04-04T11:21:38.172Z,14.32
2023-04-04T11:22:41.136Z,13.99
2023-04-04T11:23:44.111Z,21.65
2023-04-04T11:24:46.999Z,15.46
2023-04-04T11:25:50.072Z,17.83
2023-04-04T11:26:54.775Z,16.59
2023-04-04T11:27:57.520Z,12.25
2023-04-04T11:29:02.032Z,13.20
2023-04-04T11:30:06.332Z,15.50
2023-04-04T11:31:09.150Z,16.97
2023-04-04T11:32:12.241Z,12.32
2023-04-04T11:33:15.135Z,12.13
2023-04-04T11:34:18.090Z,15.75
2023-04-04T11:35:20.764Z,18.12
2023-04-04T11:36:23.814Z,12.75
2023-04-04T11:37:26.553Z,13.32
2023-04-04T11:38:29.363Z,14.57
2023-04-04T11:39:32.157Z,11.65
2023-04-04T11:40:35.023Z,15.49
2023-04-04T11:41:37.794Z,16.44
2023-04-04T11:42:40.877Z,14.72
2023-04-04T11:43:43.850Z,13.56
2023-04-04T11:44:46.835Z,18.73
2023-04-04T11:45:49.749Z,16.01
2023-04-04T11:46:52.477Z,13.38
2023-04-04T11:47:55.172Z,19.18
2023-04-04T11:48:58.232Z,23.30
2023-04-04T11:50:01.198Z,16.78
2023-04-04T11:51:10.495Z,21.98
2023-04-04T11:52:13.157Z,18.50
2023-04-04T11:53:15.880Z,16.66
2023-04-04T11:54:19.059Z,14.78
2023-04-04T11:55:22.024Z,18.27
2023-04-04T11:56:24.969Z,17.07
2023-04-04T11:57:27.778Z,15.86
2023-04-04T11:58:30.440Z,14.57
2023-04-04T11:59:33.446Z,14.66
2023-04-04T12:00:36.295Z,15.41
2023-04-04T12:01:39.076Z,17.43
2023-04-04T12:02:43.929Z,15.08
2023-04-04T12:03:46.915Z,13.81
2023-04-04T12:04:49.889Z,13.57
2023-04-04T12:05:52.893Z,16.11
2023-04-04T12:06:55.692Z,17.38
2023-04-04T12:07:58.378Z,16.48
2023-04-04T12:09:01.362Z,16.23
2023-04-04T12:10:04.728Z,15.13
2023-04-04T12:11:07.820Z,15.35
2023-04-04T12:12:10.700Z,15.27
2023-04-04T12:13:13.760Z,15.39
2023-04-04T12:14:16.532Z,19.25
2023-04-04T12:15:19.716Z,13.08
2023-04-04T12:16:22.865Z,12.79
2023-04-04T12:17:25.987Z,15.63
2023-04-04T12:18:29.059Z,13.64
2023-04-04T12:19:31.931Z,15.48
2023-04-04T12:20:34.708Z,18.12
2023-04-04T12:21:39.430Z,16.78
2023-04-04T12:22:42.515Z,16.96
2023-04-04T12:23:45.579Z,16.62
2023-04-04T12:24:48.576Z,15.59
2023-04-04T12:25:51.736Z,16.69
2023-04-04T12:26:55.761Z,18.31
2023-04-04T12:27:58.816Z,18.17
2023-04-04T12:29:01.700Z,18.66
2023-04-04T12:30:04.623Z,15.58
2023-04-04T12:31:07.571Z,17.25
2023-04-04T12:32:10.576Z,16.04
2023-04-04T12:33:13.433Z,17.22
2023-04-04T12:34:16.375Z,14.98
2023-04-04T12:35:19.902Z,14.97
2023-04-04T12:36:22.968Z,16.28
2023-04-04T12:37:25.716Z,16.27
2023-04-04T12:38:28.694Z,18.13
2023-04-04T12:39:31.667Z,12.84
2023-04-04T12:40:34.540Z,14.66
2023-04-04T12:41:37.557Z,16.53
2023-04-04T12:42:40.392Z,21.82
2023-04-04T12:43:43.082Z,17.06
2023-04-04T12:44:45.835Z,15.57
2023-04-04T12:45:48.816Z,15.38
2023-04-04T12:46:52.025Z,16.08
2023-04-04T12:47:54.949Z,14.44
2023-04-04T12:48:57.853Z,17.73
2023-04-04T12:50:00.715Z,18.23
2023-04-04T12:51:03.499Z,14.29
2023-04-04T12:52:06.366Z,15.63
2023-04-04T12:53:27.434Z,15.92
2023-04-04T12:54:13.664Z,19.83
2023-04-04T12:55:16.534Z,21.83
2023-04-04T12:56:19.510Z,18.28
2023-04-04T12:57:22.517Z,18.82
2023-04-04T12:58:25.453Z,18.44
2023-04-04T12:59:28.770Z,17.08
2023-04-04T13:00:36.943Z,17.95
2023-04-04T13:01:39.709Z,15.77
2023-04-04T13:02:42.491Z,14.68
2023-04-04T13:03:45.651Z,12.89
2023-04-04T13:04:48.951Z,17.78
2023-04-04T13:05:52.285Z,18.12
2023-04-04T13:06:55.117Z,18.25
2023-04-04T13:08:00.651Z,15.88
2023-04-04T13:09:03.426Z,16.51
2023-04-04T13:10:06.193Z,16.75
2023-04-04T13:11:09.278Z,14.56
2023-04-04T13:12:14.422Z,19.34
2023-04-04T13:13:17.274Z,16.00
2023-04-04T13:14:20.250Z,18.26
2023-04-04T13:15:22.958Z,16.48
2023-04-04T13:16:26.287Z,17.46
2023-04-04T13:17:29.139Z,18.92
2023-04-04T13:18:32.166Z,15.92
2023-04-04T13:19:34.952Z,18.45
2023-04-04T13:20:37.911Z,15.21
2023-04-04T13:21:40.790Z,16.16
2023-04-04T13:22:43.716Z,18.46
2023-04-04T13:23:46.612Z,16.36
2023-04-04T13:24:49.628Z,16.08
2023-04-04T13:25:52.404Z,18.58
2023-04-04T13:26:55.266Z,15.62
2023-04-04T13:27:58.350Z,16.26
2023-04-04T13:29:01.138Z,18.27
2023-04-04T13:30:04.131Z,15.31
2023-04-04T13:31:07.118Z,19.81
2023-04-04T13:32:10.156Z,19.68
2023-04-04T13:33:14.240Z,15.08
2023-04-04T13:34:17.021Z,15.66
2023-04-04T13:35:20.001Z,17.10
2023-04-04T13:36:22.720Z,16.57
2023-04-04T13:37:25.652Z,14.06
2023-04-04T13:38:29.073Z,16.00
2023-04-04T13:39:32.141Z,14.32
2023-04-04T13:40:34.778Z,14.18
2023-04-04T13:41:38.067Z,14.65
2023-04-04T13:42:41.048Z,18.24
2023-04-04T13:43:44.034Z,18.67